createdAt,value
2023-05-17T00:00:35.688Z,12.08
2023-05-17T00:01:35.674Z,12.14
2023-05-17T00:02:35.677Z,12.08
2023-05-17T00:03:35.685Z,12.03
2023-05-17T00:04:35.679Z,12.03
2023-05-17T00:05:35.605Z,11.82
2023-05-17T00:06:35.673Z,11.92
2023-05-17T00:07:35.619Z,11.71
2023-05-17T00:08:35.651Z,11.92
2023-05-17T00:09:35.551Z,11.71
2023-05-17T00:10:35.549Z,12.03
2023-05-17T00:11:35.531Z,11.87
2023-05-17T00:12:35.542Z,12.08
2023-05-17T00:13:35.509Z,11.71
2023-05-17T00:14:35.492Z,12.03
2023-05-17T00:15:35.476Z,12.14
2023-05-17T00:16:35.449Z,11.92
2023-05-17T00:17:35.601Z,11.92
2023-05-17T00:18:35.510Z,12.08
2023-05-17T00:19:35.526Z,12.08
2023-05-17T00:20:35.425Z,11.92
2023-05-17T00:21:35.390Z,11.87
2023-05-17T00:22:35.427Z,11.87
2023-05-17T00:23:35.373Z,11.76
2023-05-17T00:24:35.341Z,12.08
2023-05-17T00:25:35.336Z,11.82
2023-05-17T00:26:35.370Z,11.87
2023-05-17T00:27:35.305Z,11.82
2023-05-17T00:28:35.312Z,11.82
2023-05-17T00:29:35.308Z,11.87
2023-05-17T00:30:35.271Z,11.82
2023-05-17T00:31:35.300Z,12.08
2023-05-17T00:32:35.266Z,11.55
2023-05-17T00:33:35.262Z,11.82
2023-05-17T00:34:35.253Z,11.87
2023-05-17T00:35:35.203Z,11.87
2023-05-17T00:36:35.198Z,11.87
2023-05-17T00:37:35.184Z,11.66
2023-05-17T00:38:35.168Z,12.14
2023-05-17T00:39:35.173Z,11.87
2023-05-17T00:40:35.135Z,11.92
2023-05-17T00:41:35.134Z,11.87
2023-05-17T00:42:35.105Z,11.92
2023-05-17T00:43:35.148Z,11.82
2023-05-17T00:44:35.088Z,11.82
2023-05-17T00:45:35.074Z,11.66
2023-05-17T00:46:35.059Z,11.66
2023-05-17T00:47:35.119Z,12.08
2023-05-17T00:48:35.146Z,11.87
2023-05-17T00:49:35.016Z,12.08
2023-05-17T00:50:35.017Z,11.87
2023-05-17T00:51:35.009Z,11.76
2023-05-17T00:52:34.969Z,11.92
2023-05-17T00:53:34.965Z,11.87
2023-05-17T00:54:34.959Z,11.82
2023-05-17T00:55:34.976Z,11.82
2023-05-17T00:56:34.919Z,12.14
2023-05-17T00:57:34.925Z,11.60
2023-05-17T00:58:34.982Z,11.87
2023-05-17T00:59:34.876Z,11.76
2023-05-17T01:00:34.852Z,11.66
2023-05-17T01:01:34.847Z,11.98
2023-05-17T01:02:34.938Z,11.66
2023-05-17T01:03:34.886Z,11.66
2023-05-17T01:04:34.839Z,11.66
2023-05-17T01:05:34.792Z,11.82
2023-05-17T01:06:34.793Z,11.87
2023-05-17T01:07:34.766Z,11.87
2023-05-17T01:08:34.754Z,11.87
2023-05-17T01:09:34.759Z,12.08
2023-05-17T01:10:34.714Z,11.71
2023-05-17T01:11:34.724Z,11.71
2023-05-17T01:12:34.703Z,11.66
2023-05-17T01:13:34.715Z,11.71
2023-05-17T01:14:34.685Z,11.87
2023-05-17T01:15:34.660Z,11.87
2023-05-17T01:16:34.647Z,11.71
2023-05-17T01:17:34.721Z,11.92
2023-05-17T01:18:34.742Z,11.66
2023-05-17T01:19:34.693Z,11.92
2023-05-17T01:20:34.674Z,12.14
2023-05-17T01:21:34.601Z,12.03
2023-05-17T01:22:34.560Z,11.98
2023-05-17T01:23:34.608Z,11.82
2023-05-17T01:24:34.525Z,12.41
2023-05-17T01:25:34.541Z,11.71
2023-05-17T01:26:34.506Z,11.87
2023-05-17T01:27:34.532Z,12.03
2023-05-17T01:28:34.495Z,11.60
2023-05-17T01:29:34.457Z,11.76
2023-05-17T01:30:34.456Z,11.87
2023-05-17T01:31:34.438Z,11.66
2023-05-17T01:32:34.484Z,11.87
2023-05-17T01:33:34.596Z,11.87
2023-05-17T01:34:34.428Z,11.82
2023-05-17T01:35:34.392Z,11.87
2023-05-17T01:36:34.376Z,11.71
2023-05-17T01:37:34.385Z,12.41
2023-05-17T01:38:34.342Z,11.98
2023-05-17T01:39:34.340Z,12.08
2023-05-17T01:40:34.304Z,11.82
2023-05-17T01:41:34.340Z,11.92
2023-05-17T01:42:34.291Z,11.71
2023-05-17T01:43:34.285Z,11.98
2023-05-17T01:44:34.296Z,11.82
2023-05-17T01:45:34.253Z,11.66
2023-05-17T01:46:34.258Z,11.66
2023-05-17T01:47:34.330Z,12.08
2023-05-17T01:48:34.239Z,11.66
2023-05-17T01:49:34.215Z,11.82
2023-05-17T01:50:34.184Z,11.87
2023-05-17T01:51:34.172Z,11.92
2023-05-17T01:52:34.170Z,11.71
2023-05-17T01:53:34.213Z,11.82
2023-05-17T01:54:34.119Z,11.66
2023-05-17T01:55:34.128Z,11.71
2023-05-17T01:56:34.169Z,11.66
2023-05-17T01:57:34.115Z,11.66
2023-05-17T01:58:34.134Z,11.87
2023-05-17T01:59:34.105Z,11.98
2023-05-17T02:00:34.126Z,11.82
2023-05-17T02:01:34.150Z,12.08
2023-05-17T02:02:34.054Z,12.14
2023-05-17T02:03:34.038Z,11.92
2023-05-17T02:04:34.019Z,11.82
2023-05-17T02:05:34.002Z,12.14
2023-05-17T02:06:33.959Z,11.87
2023-05-17T02:07:33.962Z,12.08
2023-05-17T02:08:33.935Z,11.92
2023-05-17T02:09:33.928Z,11.55
2023-05-17T02:10:33.909Z,11.87
2023-05-17T02:11:33.921Z,11.71
2023-05-17T02:12:34.869Z,11.66
2023-05-17T02:13:33.892Z,11.87
2023-05-17T02:14:33.856Z,11.92
2023-05-17T02:15:33.868Z,12.14
2023-05-17T02:16:33.867Z,11.87
2023-05-17T02:17:33.907Z,11.87
2023-05-17T02:18:33.926Z,11.76
2023-05-17T02:19:33.861Z,11.66
2023-05-17T02:20:33.761Z,11.87
2023-05-17T02:21:33.865Z,11.87
2023-05-17T02:22:33.761Z,11.92
2023-05-17T02:23:33.749Z,11.87
2023-05-17T02:24:33.739Z,11.49
2023-05-17T02:25:33.733Z,11.92
2023-05-17T02:26:33.703Z,11.66
2023-05-17T02:27:33.684Z,11.66
2023-05-17T02:28:33.709Z,11.71
2023-05-17T02:29:33.656Z,11.66
2023-05-17T02:30:33.666Z,11.92
2023-05-17T02:31:33.646Z,11.98
2023-05-17T02:32:33.658Z,11.87
2023-05-17T02:33:33.708Z,11.87
2023-05-17T02:34:33.584Z,11.92
2023-05-17T02:35:33.632Z,11.87
2023-05-17T02:36:33.641Z,11.23
2023-05-17T02:37:33.632Z,11.55
2023-05-17T02:38:33.539Z,11.87
2023-05-17T02:39:33.544Z,11.76
2023-05-17T02:40:33.517Z,11.71
2023-05-17T02:41:33.507Z,11.92
2023-05-17T02:42:33.495Z,11.49
2023-05-17T02:43:33.467Z,11.23
2023-05-17T02:44:33.489Z,11.92
2023-05-17T02:45:33.459Z,11.76
2023-05-17T02:46:33.464Z,11.92
2023-05-17T02:47:33.468Z,11.87
2023-05-17T02:48:33.417Z,11.76
2023-05-17T02:49:33.405Z,11.23
2023-05-17T02:50:33.363Z,11.87
2023-05-17T02:51:33.402Z,11.71
2023-05-17T02:52:33.362Z,11.92
2023-05-17T02:53:33.356Z,11.49
2023-05-17T02:54:33.315Z,11.76
2023-05-17T02:55:33.333Z,11.28
2023-05-17T02:56:33.343Z,11.28
2023-05-17T02:57:33.320Z,11.71
2023-05-17T02:58:33.278Z,11.44
2023-05-17T02:59:33.251Z,11.28
2023-05-17T03:00:33.239Z,11.49
2023-05-17T03:01:33.253Z,11.44
2023-05-17T03:02:33.349Z,11.28
2023-05-17T03:03:33.370Z,11.28
2023-05-17T03:04:33.249Z,11.55
2023-05-17T03:05:33.178Z,11.33
2023-05-17T03:06:33.170Z,11.87
2023-05-17T03:07:33.160Z,11.92
2023-05-17T03:08:33.135Z,11.92
2023-05-17T03:09:33.117Z,11.66
2023-05-17T03:10:34.178Z,11.49
2023-05-17T03:11:33.110Z,11.66
2023-05-17T03:12:33.094Z,11.49
2023-05-17T03:13:33.070Z,11.92
2023-05-17T03:14:33.048Z,11.71
2023-05-17T03:15:33.069Z,11.39
2023-05-17T03:16:33.056Z,11.60
2023-05-17T03:17:33.150Z,11.66
2023-05-17T03:18:33.175Z,11.92
2023-05-17T03:19:33.002Z,11.49
2023-05-17T03:20:32.987Z,11.23
2023-05-17T03:21:33.002Z,11.55
2023-05-17T03:22:32.956Z,11.49
2023-05-17T03:23:32.915Z,11.87
2023-05-17T03:24:32.918Z,11.28
2023-05-17T03:25:32.922Z,11.66
2023-05-17T03:26:32.931Z,11.39
2023-05-17T03:27:32.940Z,11.66
2023-05-17T03:28:32.854Z,11.49
2023-05-17T03:29:32.902Z,11.49
2023-05-17T03:30:32.958Z,11.23
2023-05-17T03:31:32.819Z,11.71
2023-05-17T03:32:32.876Z,11.49
2023-05-17T03:33:32.866Z,11.55
2023-05-17T03:34:33.041Z,11.49
2023-05-17T03:35:32.769Z,11.71
2023-05-17T03:36:32.763Z,11.92
2023-05-17T03:37:32.762Z,11.23
2023-05-17T03:38:32.754Z,11.39
2023-05-17T03:39:32.751Z,11.39
2023-05-17T03:40:32.776Z,11.66
2023-05-17T03:41:32.709Z,11.28
2023-05-17T03:42:32.685Z,11.87
2023-05-17T03:43:32.851Z,11.49
2023-05-17T03:44:32.649Z,11.44
2023-05-17T03:45:32.640Z,11.49
2023-05-17T03:46:32.624Z,11.55
2023-05-17T03:47:32.627Z,11.71
2023-05-17T03:48:34.508Z,11.39
2023-05-17T03:49:32.579Z,11.92
2023-05-17T03:50:32.591Z,11.23
2023-05-17T03:51:32.550Z,11.55
2023-05-17T03:52:32.589Z,11.28
2023-05-17T03:53:32.539Z,11.87
2023-05-17T03:54:32.521Z,11.60
2023-05-17T03:55:32.509Z,11.28
2023-05-17T03:56:32.535Z,11.23
2023-05-17T03:57:32.508Z,11.17
2023-05-17T03:58:32.476Z,11.55
2023-05-17T03:59:32.469Z,11.28
2023-05-17T04:00:32.431Z,11.71
2023-05-17T04:01:32.420Z,11.23
2023-05-17T04:02:32.458Z,11.92
2023-05-17T04:03:32.425Z,11.55
2023-05-17T04:04:32.423Z,11.23
2023-05-17T04:05:32.379Z,11.87
2023-05-17T04:06:32.365Z,11.66
2023-05-17T04:07:32.361Z,11.49
2023-05-17T04:08:32.333Z,11.66
2023-05-17T04:09:32.349Z,11.92
2023-05-17T04:10:32.322Z,11.49
2023-05-17T04:11:32.294Z,11.49
2023-05-17T04:12:32.287Z,11.28
2023-05-17T04:13:32.262Z,11.76
2023-05-17T04:14:32.263Z,11.49
2023-05-17T04:15:32.249Z,11.71
2023-05-17T04:16:32.215Z,11.39
2023-05-17T04:17:32.247Z,11.55
2023-05-17T04:18:32.261Z,11.49
2023-05-17T04:19:32.325Z,11.87
2023-05-17T04:20:32.176Z,11.28
2023-05-17T04:21:32.163Z,11.49
2023-05-17T04:22:32.188Z,11.23
2023-05-17T04:23:32.146Z,11.55
2023-05-17T04:24:32.207Z,11.33
2023-05-17T04:25:32.168Z,11.49
2023-05-17T04:26:32.084Z,11.23
2023-05-17T04:27:32.095Z,11.49
2023-05-17T04:28:32.060Z,11.23
2023-05-17T04:29:32.040Z,11.39
2023-05-17T04:30:32.025Z,11.66
2023-05-17T04:31:32.011Z,11.28
2023-05-17T04:32:32.054Z,11.49
2023-05-17T04:33:32.036Z,11.28
2023-05-17T04:34:31.969Z,11.49
2023-05-17T04:35:31.978Z,11.28
2023-05-17T04:36:31.962Z,11.23
2023-05-17T04:37:31.949Z,11.92
2023-05-17T04:38:31.933Z,11.28
2023-05-17T04:39:31.900Z,11.28
2023-05-17T04:40:31.932Z,11.23
2023-05-17T04:41:31.980Z,11.44
2023-05-17T04:42:31.875Z,11.33
2023-05-17T04:43:31.847Z,11.71
2023-05-17T04:44:31.841Z,11.06
2023-05-17T04:45:31.884Z,11.71
2023-05-17T04:46:31.844Z,11.28
2023-05-17T04:47:31.893Z,11.33
2023-05-17T04:48:31.904Z,11.49
2023-05-17T04:49:31.884Z,11.39
2023-05-17T04:50:31.790Z,11.33
2023-05-17T04:51:31.751Z,11.28
2023-05-17T04:52:31.732Z,11.28
2023-05-17T04:53:31.736Z,11.82
2023-05-17T04:54:31.766Z,11.28
2023-05-17T04:55:31.730Z,11.49
2023-05-17T04:56:31.668Z,11.28
2023-05-17T04:57:31.677Z,11.39
2023-05-17T04:58:31.635Z,11.06
2023-05-17T04:59:31.637Z,11.33
2023-05-17T05:00:31.645Z,11.33
2023-05-17T05:01:31.599Z,11.33
2023-05-17T05:02:31.636Z,11.49
2023-05-17T05:03:31.654Z,11.23
2023-05-17T05:04:31.681Z,11.28
2023-05-17T05:05:31.550Z,11.33
2023-05-17T05:06:31.551Z,11.33
2023-05-17T05:07:31.519Z,11.55
2023-05-17T05:08:31.538Z,11.33
2023-05-17T05:09:31.539Z,11.28
2023-05-17T05:10:31.491Z,11.23
2023-05-17T05:11:31.516Z,11.49
2023-05-17T05:12:31.444Z,11.49
2023-05-17T05:13:31.516Z,11.12
2023-05-17T05:14:31.436Z,11.12
2023-05-17T05:15:31.429Z,11.28
2023-05-17T05:16:31.393Z,11.55
2023-05-17T05:17:31.480Z,11.39
2023-05-17T05:18:31.432Z,11.28
2023-05-17T05:19:31.384Z,11.28
2023-05-17T05:20:31.335Z,11.23
2023-05-17T05:21:31.336Z,11.33
2023-05-17T05:22:31.344Z,11.06
2023-05-17T05:23:31.302Z,11.06
2023-05-17T05:24:31.288Z,11.12
2023-05-17T05:25:31.392Z,11.49
2023-05-17T05:26:31.255Z,11.44
2023-05-17T05:27:31.257Z,11.23
2023-05-17T05:28:31.291Z,11.06
2023-05-17T05:29:31.210Z,11.28
2023-05-17T05:30:31.218Z,11.28
2023-05-17T05:31:31.324Z,11.33
2023-05-17T05:32:31.234Z,11.28
2023-05-17T05:33:31.208Z,11.33
2023-05-17T05:34:31.164Z,11.28
2023-05-17T05:35:31.263Z,11.12
2023-05-17T05:36:31.130Z,11.44
2023-05-17T05:37:31.185Z,11.28
2023-05-17T05:38:31.117Z,11.06
2023-05-17T05:39:31.084Z,11.39
2023-05-17T05:40:31.189Z,11.39
2023-05-17T05:41:31.066Z,11.44
2023-05-17T05:42:31.058Z,11.55
2023-05-17T05:43:31.034Z,11.49
2023-05-17T05:44:31.029Z,11.06
2023-05-17T05:45:31.008Z,11.33
2023-05-17T05:46:31.182Z,11.49
2023-05-17T05:47:31.002Z,11.06
2023-05-17T05:48:31.984Z,11.23
2023-05-17T05:49:30.954Z,11.33
2023-05-17T05:50:31.217Z,11.06
2023-05-17T05:51:30.952Z,11.28
2023-05-17T05:52:30.910Z,11.23
2023-05-17T05:53:30.921Z,11.28
2023-05-17T05:54:30.882Z,11.33
2023-05-17T05:55:30.861Z,11.44
2023-05-17T05:56:30.901Z,11.28
2023-05-17T05:57:30.859Z,11.12
2023-05-17T05:58:30.833Z,11.23
2023-05-17T05:59:30.817Z,11.33
2023-05-17T06:00:31.047Z,11.33
2023-05-17T06:01:30.784Z,11.28
2023-05-17T06:02:30.798Z,11.06
2023-05-17T06:03:30.755Z,11.44
2023-05-17T06:04:44.059Z,11.44
2023-05-17T06:05:31.927Z,11.39
2023-05-17T06:06:30.820Z,11.49
2023-05-17T06:07:30.710Z,11.33
2023-05-17T06:08:30.702Z,11.33
2023-05-17T06:09:30.702Z,11.44
2023-05-17T06:10:31.054Z,11.17
2023-05-17T06:11:30.670Z,11.12
2023-05-17T06:12:30.648Z,11.12
2023-05-17T06:13:30.625Z,11.33
2023-05-17T06:14:30.704Z,11.28
2023-05-17T06:15:30.599Z,11.49
2023-05-17T06:16:30.606Z,11.28
2023-05-17T06:17:30.599Z,11.49
2023-05-17T06:18:30.629Z,11.17
2023-05-17T06:19:30.690Z,11.49
2023-05-17T06:20:30.770Z,11.28
2023-05-17T06:21:30.504Z,11.12
2023-05-17T06:22:30.553Z,11.33
2023-05-17T06:23:30.490Z,11.17
2023-05-17T06:24:30.497Z,11.28
2023-05-17T06:25:30.502Z,11.12
2023-05-17T06:26:30.456Z,11.33
2023-05-17T06:27:30.441Z,11.28
2023-05-17T06:28:30.474Z,11.06
2023-05-17T06:29:30.426Z,11.06
2023-05-17T06:30:30.958Z,11.28
2023-05-17T06:31:30.411Z,11.28
2023-05-17T06:32:30.425Z,11.28
2023-05-17T06:33:30.450Z,11.12
2023-05-17T06:34:30.340Z,11.28
2023-05-17T06:35:35.331Z,11.55
2023-05-17T06:36:32.563Z,11.17
2023-05-17T06:37:30.320Z,11.23
2023-05-17T06:38:30.311Z,11.06
2023-05-17T06:39:30.278Z,11.06
2023-05-17T06:40:30.393Z,10.96
2023-05-17T06:41:30.245Z,11.39
2023-05-17T06:42:30.266Z,11.12
2023-05-17T06:43:30.238Z,11.33
2023-05-17T06:44:30.200Z,11.06
2023-05-17T06:45:30.199Z,10.80
2023-05-17T06:46:30.202Z,11.44
2023-05-17T06:47:30.274Z,11.33
2023-05-17T06:48:30.233Z,11.33
2023-05-17T06:49:30.133Z,11.28
2023-05-17T06:50:30.366Z,10.69
2023-05-17T06:51:30.119Z,11.17
2023-05-17T06:52:30.120Z,11.33
2023-05-17T06:53:30.066Z,11.28
2023-05-17T06:54:30.066Z,10.69
2023-05-17T06:55:31.666Z,10.90
2023-05-17T06:56:30.058Z,10.69
2023-05-17T06:57:30.046Z,11.23
2023-05-17T06:58:30.005Z,11.33
2023-05-17T06:59:29.998Z,10.74
2023-05-17T07:00:30.335Z,10.96
2023-05-17T07:01:29.973Z,11.06
2023-05-17T07:02:30.370Z,11.06
2023-05-17T07:03:29.997Z,11.06
2023-05-17T07:04:30.009Z,11.23
2023-05-17T07:05:30.202Z,11.33
2023-05-17T07:06:29.918Z,10.90
2023-05-17T07:07:29.887Z,10.85
2023-05-17T07:08:29.893Z,11.06
2023-05-17T07:09:29.849Z,11.06
2023-05-17T07:10:29.869Z,11.33
2023-05-17T07:11:29.827Z,11.28
2023-05-17T07:12:29.825Z,11.33
2023-05-17T07:13:29.822Z,11.33
2023-05-17T07:14:29.818Z,11.06
2023-05-17T07:15:30.014Z,11.06
2023-05-17T07:16:29.756Z,11.17
2023-05-17T07:17:29.783Z,10.80
2023-05-17T07:18:29.853Z,10.69
2023-05-17T07:19:29.908Z,11.12
2023-05-17T07:20:29.744Z,10.85
2023-05-17T07:21:29.694Z,11.33
2023-05-17T07:22:29.699Z,10.69
2023-05-17T07:23:29.669Z,10.74
2023-05-17T07:24:29.672Z,10.90
2023-05-17T07:25:29.796Z,11.12
2023-05-17T07:26:29.703Z,11.28
2023-05-17T07:27:29.619Z,11.06
2023-05-17T07:28:29.652Z,11.06
2023-05-17T07:29:29.597Z,11.06
2023-05-17T07:30:29.581Z,11.12
2023-05-17T07:31:29.562Z,10.69
2023-05-17T07:32:29.619Z,11.06
2023-05-17T07:33:29.528Z,11.28
2023-05-17T07:34:29.601Z,11.28
2023-05-17T07:35:29.706Z,10.96
2023-05-17T07:36:29.543Z,11.17
2023-05-17T07:37:29.477Z,10.80
2023-05-17T07:38:29.480Z,10.90
2023-05-17T07:39:29.509Z,11.01
2023-05-17T07:40:29.442Z,11.12
2023-05-17T07:41:29.428Z,11.28
2023-05-17T07:42:29.404Z,11.06
2023-05-17T07:43:29.419Z,10.80
2023-05-17T07:44:29.408Z,10.69
2023-05-17T07:45:29.634Z,10.69
2023-05-17T07:46:29.379Z,10.90
2023-05-17T07:47:29.483Z,11.12
2023-05-17T07:48:29.544Z,11.28
2023-05-17T07:49:30.565Z,10.90
2023-05-17T07:50:29.304Z,10.74
2023-05-17T07:51:29.303Z,11.06
2023-05-17T07:52:29.277Z,11.28
2023-05-17T07:53:29.278Z,10.90
2023-05-17T07:54:29.268Z,10.85
2023-05-17T07:55:29.425Z,11.01
2023-05-17T07:56:29.250Z,10.96
2023-05-17T07:57:29.240Z,11.33
2023-05-17T07:58:29.186Z,11.06
2023-05-17T07:59:29.194Z,11.06
2023-05-17T08:00:29.172Z,11.06
2023-05-17T08:01:29.193Z,10.90
2023-05-17T08:02:29.176Z,11.12
2023-05-17T08:03:29.120Z,11.33
2023-05-17T08:04:29.157Z,11.33
2023-05-17T08:05:29.362Z,11.17
2023-05-17T08:06:29.198Z,10.90
2023-05-17T08:07:29.084Z,10.90
2023-05-17T08:08:29.732Z,11.28
2023-05-17T08:09:29.058Z,10.53
2023-05-17T08:10:29.049Z,10.90
2023-05-17T08:11:29.055Z,10.69
2023-05-17T08:12:29.000Z,10.69
2023-05-17T08:13:28.979Z,10.74
2023-05-17T08:14:28.983Z,10.74
2023-05-17T08:15:29.212Z,10.80
2023-05-17T08:16:28.950Z,10.90
2023-05-17T08:17:28.970Z,10.90
2023-05-17T08:18:29.011Z,10.69
2023-05-17T08:19:29.002Z,10.80
2023-05-17T08:20:28.915Z,10.69
2023-05-17T08:21:29.104Z,11.12
2023-05-17T08:22:28.864Z,11.12
2023-05-17T08:23:28.857Z,10.69
2023-05-17T08:24:28.851Z,10.63
2023-05-17T08:25:29.229Z,11.28
2023-05-17T08:26:28.801Z,10.80
2023-05-17T08:27:28.802Z,10.85
2023-05-17T08:28:28.791Z,10.69
2023-05-17T08:29:28.790Z,10.69
2023-05-17T08:30:29.540Z,10.90
2023-05-17T08:31:28.742Z,10.80
2023-05-17T08:32:28.790Z,10.74
2023-05-17T08:33:28.876Z,10.58
2023-05-17T08:34:28.710Z,10.69
2023-05-17T08:35:29.216Z,10.69
2023-05-17T08:36:28.674Z,10.53
2023-05-17T08:37:28.666Z,10.80
2023-05-17T08:38:28.659Z,10.96
2023-05-17T08:39:28.662Z,10.74
2023-05-17T08:40:28.770Z,10.69
2023-05-17T08:41:29.272Z,10.96
2023-05-17T08:42:28.584Z,10.96
2023-05-17T08:43:28.610Z,10.74
2023-05-17T08:44:28.630Z,10.47
2023-05-17T08:45:28.692Z,10.85
2023-05-17T08:46:28.532Z,10.96
2023-05-17T08:47:28.538Z,10.96
2023-05-17T08:48:28.533Z,10.90
2023-05-17T08:49:28.553Z,10.74
2023-05-17T08:50:28.851Z,10.58
2023-05-17T08:51:28.472Z,10.74
2023-05-17T08:52:28.457Z,10.90
2023-05-17T08:53:28.502Z,10.85
2023-05-17T08:54:28.535Z,10.90
2023-05-17T08:55:28.422Z,10.53
2023-05-17T08:56:28.379Z,10.69
2023-05-17T08:57:28.405Z,10.85
2023-05-17T08:58:28.388Z,10.85
2023-05-17T08:59:28.367Z,10.85
2023-05-17T09:00:28.696Z,10.74
2023-05-17T09:01:29.904Z,10.96
2023-05-17T09:02:28.534Z,10.74
2023-05-17T09:03:28.376Z,10.85
2023-05-17T09:04:28.340Z,10.63
2023-05-17T09:05:28.315Z,10.69
2023-05-17T09:06:28.304Z,10.90
2023-05-17T09:07:28.272Z,10.90
2023-05-17T09:08:28.235Z,10.53
2023-05-17T09:09:28.220Z,10.69
2023-05-17T09:10:28.537Z,10.85
2023-05-17T09:11:28.223Z,10.69
2023-05-17T09:12:28.191Z,10.69
2023-05-17T09:13:28.166Z,10.85
2023-05-17T09:14:28.137Z,10.85
2023-05-17T09:15:28.158Z,11.17
2023-05-17T09:16:28.170Z,10.53
2023-05-17T09:17:28.162Z,10.90
2023-05-17T09:18:28.204Z,10.69
2023-05-17T09:19:28.284Z,10.74
2023-05-17T09:20:28.180Z,10.58
2023-05-17T09:21:28.082Z,10.47
2023-05-17T09:22:28.037Z,10.74
2023-05-17T09:23:28.042Z,10.74
2023-05-17T09:24:28.004Z,10.63
2023-05-17T09:25:28.014Z,10.74
2023-05-17T09:26:28.064Z,10.53
2023-05-17T09:27:27.977Z,10.42
2023-05-17T09:28:27.956Z,10.90
2023-05-17T09:29:27.951Z,10.85
2023-05-17T09:30:28.177Z,10.53
2023-05-17T09:31:27.928Z,10.47
2023-05-17T09:32:27.964Z,10.80
2023-05-17T09:33:27.959Z,10.53
2023-05-17T09:34:27.933Z,10.47
2023-05-17T09:35:28.072Z,10.47
2023-05-17T09:36:27.906Z,10.53
2023-05-17T09:37:27.845Z,10.74
2023-05-17T09:38:27.830Z,10.74
2023-05-17T09:39:27.843Z,10.53
2023-05-17T09:40:27.786Z,10.74
2023-05-17T09:41:27.782Z,10.53
2023-05-17T09:42:27.764Z,10.74
2023-05-17T09:43:27.776Z,10.69
2023-05-17T09:44:27.760Z,10.26
2023-05-17T09:45:27.878Z,10.74
2023-05-17T09:46:27.750Z,10.53
2023-05-17T09:47:27.830Z,10.31
2023-05-17T09:48:27.919Z,10.58
2023-05-17T09:49:27.675Z,10.42
2023-05-17T09:50:27.662Z,10.53
2023-05-17T09:51:27.645Z,10.42
2023-05-17T09:52:27.635Z,10.31
2023-05-17T09:53:27.624Z,10.53
2023-05-17T09:54:27.620Z,10.74
2023-05-17T09:55:28.221Z,10.74
2023-05-17T09:56:27.577Z,10.53
2023-05-17T09:57:27.608Z,10.80
2023-05-17T09:58:27.563Z,10.63
2023-05-17T09:59:27.540Z,10.31
2023-05-17T10:00:27.534Z,10.53
2023-05-17T10:01:27.528Z,10.69
2023-05-17T10:02:27.545Z,10.53
2023-05-17T10:03:27.620Z,10.53
2023-05-17T10:04:27.507Z,10.69
2023-05-17T10:05:27.689Z,10.47
2023-05-17T10:06:43.639Z,10.74
2023-05-17T10:07:28.460Z,10.47
2023-05-17T10:08:27.412Z,10.74
2023-05-17T10:09:27.405Z,10.53
2023-05-17T10:10:27.390Z,10.58
2023-05-17T10:11:27.395Z,10.42
2023-05-17T10:12:27.380Z,10.31
2023-05-17T10:13:27.362Z,10.53
2023-05-17T10:14:27.714Z,10.47
2023-05-17T10:15:27.560Z,10.31
2023-05-17T10:16:27.342Z,10.42
2023-05-17T10:17:27.364Z,10.47
2023-05-17T10:18:27.390Z,10.53
2023-05-17T10:19:27.443Z,10.69
2023-05-17T10:20:27.242Z,10.53
2023-05-17T10:21:27.253Z,10.53
2023-05-17T10:22:27.266Z,10.74
2023-05-17T10:23:27.228Z,10.74
2023-05-17T10:24:27.195Z,10.53
2023-05-17T10:25:27.367Z,10.58
2023-05-17T10:26:27.197Z,10.31
2023-05-17T10:27:27.179Z,10.10
2023-05-17T10:28:27.154Z,10.37
2023-05-17T10:29:27.144Z,10.53
2023-05-17T10:30:27.135Z,10.53
2023-05-17T10:31:27.129Z,10.53
2023-05-17T10:32:27.400Z,10.10
2023-05-17T10:33:27.114Z,10.31
2023-05-17T10:34:27.067Z,10.31
2023-05-17T10:35:27.206Z,10.37
2023-05-17T10:36:27.041Z,10.53
2023-05-17T10:37:27.026Z,10.53
2023-05-17T10:38:38.597Z,10.42
2023-05-17T10:39:28.040Z,10.69
2023-05-17T10:40:26.993Z,10.31
2023-05-17T10:41:26.991Z,10.10
2023-05-17T10:42:26.958Z,10.10
2023-05-17T10:43:26.943Z,10.10
2023-05-17T10:44:26.926Z,10.31
2023-05-17T10:45:27.300Z,10.69
2023-05-17T10:46:26.913Z,10.15
2023-05-17T10:47:26.909Z,10.15
2023-05-17T10:48:26.964Z,10.10
2023-05-17T10:49:27.095Z,10.31
2023-05-17T10:50:27.140Z,10.37
2023-05-17T10:51:26.829Z,10.26
2023-05-17T10:52:26.819Z,10.53
2023-05-17T10:53:26.823Z,10.37
2023-05-17T10:54:26.806Z,10.47
2023-05-17T10:55:26.929Z,10.53
2023-05-17T10:56:26.756Z,10.15
2023-05-17T10:57:27.736Z,10.21
2023-05-17T10:58:26.774Z,10.31
2023-05-17T10:59:26.820Z,10.31
2023-05-17T11:00:26.754Z,10.37
2023-05-17T11:01:26.701Z,10.04
2023-05-17T11:02:26.709Z,10.47
2023-05-17T11:03:26.691Z,10.26
2023-05-17T11:04:26.778Z,10.37
2023-05-17T11:05:26.722Z,10.15
2023-05-17T11:06:26.724Z,10.31
2023-05-17T11:07:26.621Z,10.47
2023-05-17T11:08:26.593Z,10.53
2023-05-17T11:09:26.622Z,10.37
2023-05-17T11:10:26.613Z,10.31
2023-05-17T11:11:26.563Z,10.26
2023-05-17T11:12:26.545Z,10.31
2023-05-17T11:13:26.534Z,10.53
2023-05-17T11:14:26.507Z,10.47
2023-05-17T11:15:26.706Z,10.58
2023-05-17T11:16:26.499Z,10.47
2023-05-17T11:17:26.554Z,10.58
2023-05-17T11:18:30.467Z,10.47
2023-05-17T11:19:26.506Z,10.21
2023-05-17T11:20:26.821Z,10.26
2023-05-17T11:21:26.475Z,10.26
2023-05-17T11:22:26.407Z,10.37
2023-05-17T11:23:26.421Z,10.37
2023-05-17T11:24:26.385Z,10.15
2023-05-17T11:25:26.383Z,10.58
2023-05-17T11:26:26.349Z,10.15
2023-05-17T11:27:26.329Z,10.15
2023-05-17T11:28:26.344Z,10.26
2023-05-17T11:29:26.316Z,10.15
2023-05-17T11:30:26.508Z,10.53
2023-05-17T11:31:26.304Z,10.42
2023-05-17T11:32:26.276Z,10.37
2023-05-17T11:33:33.664Z,10.31
2023-05-17T11:34:27.304Z,10.15
2023-05-17T11:35:26.272Z,10.15
2023-05-17T11:36:26.216Z,10.15
2023-05-17T11:37:26.229Z,10.26
2023-05-17T11:38:26.177Z,10.04
2023-05-17T11:39:26.178Z,10.37
2023-05-17T11:40:26.283Z,10.47
2023-05-17T11:41:27.413Z,10.37
2023-05-17T11:42:26.156Z,10.10
2023-05-17T11:43:26.134Z,9.94
2023-05-17T11:44:26.112Z,10.15
2023-05-17T11:45:26.200Z,10.37
2023-05-17T11:46:26.093Z,10.53
2023-05-17T11:47:26.147Z,10.15
2023-05-17T11:48:26.453Z,10.31
2023-05-17T11:49:35.010Z,10.31
2023-05-17T11:50:27.356Z,9.88
2023-05-17T11:51:26.018Z,10.37
2023-05-17T11:52:27.332Z,10.15
2023-05-17T11:53:26.001Z,10.31
2023-05-17T11:54:25.985Z,10.10
2023-05-17T11:55:25.972Z,10.21
2023-05-17T11:56:39.603Z,9.94
2023-05-17T11:57:26.934Z,9.94
2023-05-17T11:58:25.939Z,9.94
2023-05-17T11:59:25.906Z,10.04
2023-05-17T12:00:26.003Z,9.94
2023-05-17T12:01:25.891Z,10.10
2023-05-17T12:02:25.908Z,10.10
2023-05-17T12:03:25.872Z,10.26
2023-05-17T12:04:25.926Z,9.99
2023-05-17T12:05:25.819Z,9.94
2023-05-17T12:06:25.853Z,10.10
2023-05-17T12:07:25.819Z,10.10
2023-05-17T12:08:25.802Z,10.42
2023-05-17T12:09:25.768Z,10.10
2023-05-17T12:10:25.757Z,10.10
2023-05-17T12:11:25.749Z,10.10
2023-05-17T12:12:25.764Z,10.15
2023-05-17T12:13:25.716Z,10.10
2023-05-17T12:14:25.711Z,10.31
2023-05-17T12:15:25.679Z,9.99
2023-05-17T12:16:25.680Z,10.10
2023-05-17T12:17:25.760Z,10.37
2023-05-17T12:18:25.703Z,9.99
2023-05-17T12:19:25.743Z,10.26
2023-05-17T12:20:25.680Z,9.94
2023-05-17T12:21:25.634Z,9.94
2023-05-17T12:22:25.663Z,9.94
2023-05-17T12:23:25.570Z,9.94
2023-05-17T12:24:25.567Z,9.94
2023-05-17T12:25:25.847Z,10.15
2023-05-17T12:26:25.574Z,10.37
2023-05-17T12:27:25.522Z,9.99
2023-05-17T12:28:25.522Z,10.04
2023-05-17T12:29:25.500Z,9.88
2023-05-17T12:30:25.610Z,9.78
2023-05-17T12:31:25.515Z,9.88
2023-05-17T12:32:25.533Z,9.78
2023-05-17T12:33:25.536Z,9.78
2023-05-17T12:34:25.449Z,9.83
2023-05-17T12:35:25.413Z,9.94
2023-05-17T12:36:25.437Z,9.88
2023-05-17T12:37:25.394Z,10.15
2023-05-17T12:38:25.392Z,10.21
2023-05-17T12:39:25.361Z,9.78
2023-05-17T12:40:25.375Z,9.88
2023-05-17T12:41:25.332Z,9.94
2023-05-17T12:42:25.324Z,10.15
2023-05-17T12:43:25.317Z,10.21
2023-05-17T12:44:25.296Z,10.15
2023-05-17T12:45:25.286Z,10.04
2023-05-17T12:46:25.279Z,9.78
2023-05-17T12:47:25.322Z,9.72
2023-05-17T12:48:25.266Z,9.99
2023-05-17T12:49:25.257Z,10.15
2023-05-17T12:50:25.257Z,9.94
2023-05-17T12:51:25.207Z,9.94
2023-05-17T12:52:25.215Z,9.88
2023-05-17T12:53:25.193Z,9.78